Time;durP1;ratioP1;P1;durP2;ratioP2;P2;SDS_P1;SDS_P2;PMS_P1;PMS_P2;Temp;Humidity;BMP_temperature;BMP_pressure;BME280_temperature;BME280_humidity;BME280_pressure;Samples;Min_cycle;Max_cycle;Signal;HPM_P1;HPM_P2
2021/06/04 00:01:26;;;;;;;29.90;26.75;;;17.70;99.90;;;;;;5153800;27;20047;-66
2021/06/04 00:03:53;;;;;;;30.27;27.40;;;17.70;99.90;;;;;;5155230;27;20466;-65
2021/06/04 00:06:19;;;;;;;31.88;28.77;;;17.60;99.90;;;;;;5151744;27;20073;-65
2021/06/04 00:08:49;;;;;;;30.55;27.70;;;17.60;99.90;;;;;;5157234;27;20042;-66
2021/06/04 00:11:25;;;;;;;32.72;29.48;;;17.60;99.90;;;;;;5150379;27;20039;-66
2021/06/04 00:13:59;;;;;;;36.08;32.38;;;17.60;99.90;;;;;;5159946;27;20031;-66
2021/06/04 00:16:36;;;;;;;44.42;34.95;;;17.50;99.90;;;;;;5153854;27;20034;-66
2021/06/04 00:19:08;;;;;;;36.92;32.97;;;17.50;99.90;;;;;;5158380;27;20047;-66
2021/06/04 00:21:40;;;;;;;37.60;33.67;;;17.50;99.90;;;;;;5154443;27;20035;-66
2021/06/04 00:24:08;;;;;;;43.50;39.08;;;17.50;99.90;;;;;;5167305;27;20022;-66
2021/06/04 00:26:35;;;;;;;39.75;35.70;;;17.50;99.90;;;;;;5157173;27;20199;-66
2021/06/04 00:29:03;;;;;;;38.85;33.50;;;17.40;99.90;;;;;;5162790;27;20062;-66
2021/06/04 00:31:28;;;;;;;42.78;38.30;;;17.50;99.90;;;;;;5154404;27;20041;-66
2021/06/04 00:33:55;;;;;;;40.50;36.20;;;17.40;99.90;;;;;;5164012;27;20035;-66
2021/06/04 00:36:23;;;;;;;45.05;39.65;;;17.40;99.90;;;;;;5122647;27;20090;-66
2021/06/04 00:38:49;;;;;;;42.78;38.65;;;17.40;99.90;;;;;;5164369;27;20117;-66
2021/06/04 00:41:28;;;;;;;50.13;43.22;;;17.40;99.90;;;;;;5157667;27;20086;-66
2021/06/04 00:43:54;;;;;;;54.47;45.22;;;17.40;99.90;;;;;;5164076;27;20034;-66
2021/06/04 00:46:21;;;;;;;52.40;46.78;;;17.40;99.90;;;;;;5157818;27;20079;-66
2021/06/04 00:48:48;;;;;;;49.08;43.80;;;17.40;99.90;;;;;;5163507;27;20039;-66
2021/06/04 00:51:21;;;;;;;52.63;45.25;;;17.30;99.90;;;;;;5160207;27;20453;-66
2021/06/04 00:53:49;;;;;;;;;;;17.40;99.90;;;;;;5160356;27;20106;-66
2021/06/04 00:56:15;;;;;;;49.38;41.90;;;17.20;99.90;;;;;;5140590;27;19928;-66
2021/06/04 00:58:46;;;;;;;50.63;44.80;;;17.20;99.90;;;;;;5162003;27;20057;-66
2021/06/04 01:01:17;;;;;;;60.35;49.08;;;17.30;99.90;;;;;;5161006;27;20034;-66
2021/06/04 01:03:48;;;;;;;51.17;45.60;;;17.30;99.90;;;;;;5151953;27;20081;-66
2021/06/04 01:06:48;;;;;;;57.67;48.78;;;17.30;99.90;;;;;;5160491;27;20034;-66
2021/06/04 01:09:33;;;;;;;58.08;47.78;;;17.30;99.90;;;;;;5159659;27;20060;-66
2021/06/04 01:12:40;;;;;;;53.60;45.97;;;17.30;99.90;;;;;;5152905;27;20035;-66
2021/06/04 01:15:43;;;;;;;80.65;54.10;;;17.30;99.90;;;;;;5133892;27;20078;-66
2021/06/04 01:18:39;;;;;;;60.72;50.67;;;17.20;99.90;;;;;;5143264;27;20041;-66
2021/06/04 01:21:23;;;;;;;51.78;45.92;;;17.20;99.90;;;;;;5142607;27;20035;-66
2021/06/04 01:24:18;;;;;;;63.70;53.83;;;17.20;99.90;;;;;;5153360;27;20172;-66
2021/06/04 01:26:50;;;;;;;62.72;51.78;;;17.20;99.90;;;;;;5160048;27;20046;-66
2021/06/04 01:29:31;;;;;;;148.73;66.38;;;17.20;99.90;;;;;;5157101;27;20251;-66
2021/06/04 01:32:02;;;;;;;62.13;49.97;;;17.10;99.90;;;;;;5166711;27;20120;-66
2021/06/04 01:34:32;;;;;;;67.78;54.45;;;17.10;99.90;;;;;;5153820;27;20039;-66
2021/06/04 01:37:09;;;;;;;59.63;53.22;;;17.10;99.90;;;;;;5158531;27;20045;-66
2021/06/04 01:39:42;;;;;;;71.57;58.10;;;17.10;99.90;;;;;;5159059;27;20042;-66
2021/06/04 01:42:11;;;;;;;62.28;52.38;;;17.10;99.90;;;;;;5161345;27;20046;-66
2021/06/04 01:44:46;;;;;;;74.95;57.42;;;17.10;99.90;;;;;;5148386;27;20141;-66
2021/06/04 01:47:15;;;;;;;79.53;60.92;;;17.10;99.90;;;;;;5161832;27;20035;-66
2021/06/04 01:49:45;;;;;;;152.07;69.88;;;17.10;99.90;;;;;;5151922;27;20031;-66
2021/06/04 01:52:32;;;;;;;71.10;56.00;;;17.10;99.90;;;;;;5162856;27;20095;-66
2021/06/04 01:55:24;;;;;;;81.30;60.55;;;17.10;99.90;;;;;;5153663;27;20045;-66
2021/06/04 01:57:57;;;;;;;68.82;57.22;;;17.00;99.90;;;;;;5163615;27;20053;-66
2021/06/04 02:00:26;;;;;;;72.63;58.08;;;17.00;99.90;;;;;;5154480;27;20046;-66
2021/06/04 02:02:52;;;;;;;66.93;54.85;;;17.00;99.90;;;;;;5160160;27;20034;-66
2021/06/04 02:05:21;;;;;;;72.35;57.13;;;17.00;99.90;;;;;;5151239;27;20034;-66
2021/06/04 02:07:47;;;;;;;81.53;60.92;;;17.00;99.90;;;;;;5160539;27;20038;-66
2021/06/04 02:10:19;;;;;;;97.80;65.45;;;17.00;99.90;;;;;;5158288;27;20404;-66
2021/06/04 02:12:48;;;;;;;100.95;68.22;;;17.00;99.90;;;;;;5158283;27;20046;-66
2021/06/04 02:15:21;;;;;;;86.30;61.42;;;17.00;99.90;;;;;;5152161;27;20415;-66
2021/06/04 02:18:01;;;;;;;67.70;56.15;;;17.00;99.90;;;;;;5161301;27;20477;-66
2021/06/04 02:20:42;;;;;;;61.70;53.65;;;17.00;99.90;;;;;;5159005;27;20042;-66
2021/06/04 02:23:26;;;;;;;81.65;60.40;;;17.00;99.90;;;;;;5153419;27;20485;-66
2021/06/04 02:26:08;;;;;;;65.82;55.90;;;17.00;99.90;;;;;;5158098;27;20039;-66
2021/06/04 02:28:48;;;;;;;111.82;64.28;;;17.00;99.90;;;;;;5160224;27;20141;-66
2021/06/04 02:31:29;;;;;;;95.25;65.55;;;17.00;99.90;;;;;;5153827;27;20073;-66
2021/06/04 02:34:10;;;;;;;79.75;61.42;;;17.00;99.90;;;;;;5165460;27;20139;-66
2021/06/04 02:36:54;;;;;;;112.60;71.65;;;17.00;99.90;;;;;;5158370;27;20416;-66
2021/06/04 02:39:31;;;;;;;118.82;71.22;;;17.00;99.90;;;;;;5156502;27;20393;-66
2021/06/04 02:42:03;;;;;;;74.35;57.38;;;16.90;99.90;;;;;;5158812;27;20053;-66
2021/06/04 02:44:44;;;;;;;89.30;65.57;;;17.00;99.90;;;;;;5160680;27;20054;-66
2021/06/04 02:47:24;;;;;;;79.80;61.42;;;17.00;99.90;;;;;;5154325;27;20046;-66
2021/06/04 02:49:50;;;;;;;77.07;59.63;;;17.00;99.90;;;;;;5158338;27;20046;-66
2021/06/04 02:52:28;;;;;;;80.13;60.75;;;17.00;99.90;;;;;;5152157;27;20061;-66
2021/06/04 02:54:54;;;;;;;73.65;60.15;;;17.00;99.90;;;;;;5162275;27;20503;-66
2021/06/04 02:57:25;;;;;;;71.38;58.20;;;17.00;99.90;;;;;;5157699;27;20069;-66
2021/06/04 02:59:51;;;;;;;75.00;57.45;;;16.90;99.90;;;;;;5158383;27;20054;-66
2021/06/04 03:02:30;;;;;;;73.45;58.28;;;16.90;99.90;;;;;;5155413;27;20038;-66
2021/06/04 03:05:00;;;;;;;75.95;58.97;;;16.90;99.90;;;;;;5161557;27;20034;-66
2021/06/04 03:07:33;;;;;;;83.72;62.58;;;16.90;99.90;;;;;;5154043;27;20042;-66
2021/06/04 03:10:03;;;;;;;240.60;78.15;;;16.90;99.90;;;;;;5165363;27;20716;-66
2021/06/04 03:12:34;;;;;;;66.82;54.70;;;16.80;99.90;;;;;;5153520;27;20035;-66
2021/06/04 03:15:01;;;;;;;71.90;57.88;;;16.80;99.90;;;;;;5162618;27;20461;-66
2021/06/04 03:17:30;;;;;;;72.65;57.58;;;16.80;99.90;;;;;;5160397;27;20099;-66
2021/06/04 03:19:57;;;;;;;73.18;58.20;;;16.80;99.90;;;;;;5162401;27;20042;-66
2021/06/04 03:22:28;;;;;;;68.85;55.42;;;16.80;99.90;;;;;;5150581;27;20061;-67
2021/06/04 03:24:56;;;;;;;84.50;60.05;;;16.80;99.90;;;;;;5165714;27;20452;-67
2021/06/04 03:27:28;;;;;;;69.53;55.35;;;16.80;99.90;;;;;;5139756;27;20532;-67
2021/06/04 03:29:56;;;;;;;70.15;56.17;;;16.70;99.90;;;;;;5162115;27;20034;-67
2021/06/04 03:32:25;;;;;;;64.15;52.10;;;16.70;99.90;;;;;;5156199;27;20082;-64
2021/06/04 03:34:51;;;;;;;71.78;56.05;;;16.70;99.90;;;;;;5166692;27;20382;-64
2021/06/04 03:37:20;;;;;;;169.80;70.05;;;16.70;99.90;;;;;;5159831;27;20046;-66
2021/06/04 03:39:46;;;;;;;108.05;63.75;;;16.60;99.90;;;;;;5153472;27;20038;-66
2021/06/04 03:42:18;;;;;;;94.93;61.45;;;16.60;99.90;;;;;;5160846;27;20094;-65
2021/06/04 03:44:48;;;;;;;96.78;63.50;;;16.60;99.90;;;;;;5152723;27;20436;-65
2021/06/04 03:47:14;;;;;;;101.38;59.03;;;16.50;99.90;;;;;;5163041;27;20037;-65
2021/06/04 03:49:40;;;;;;;126.72;65.63;;;16.50;99.90;;;;;;5156412;27;20045;-65
2021/06/04 03:52:09;;;;;;;287.27;77.95;;;16.50;99.90;;;;;;5164197;27;20436;-65
2021/06/04 03:54:39;;;;;;;84.63;59.63;;;16.50;99.90;;;;;;5152843;27;20050;-65
2021/06/04 03:57:08;;;;;;;106.85;62.13;;;16.50;99.90;;;;;;5161489;27;20058;-65
2021/06/04 03:59:34;;;;;;;85.30;59.00;;;16.50;99.90;;;;;;5153449;27;20078;-65
2021/06/04 04:02:06;;;;;;;80.65;58.17;;;16.50;99.90;;;;;;5151835;27;20031;-65
2021/06/04 04:04:36;;;;;;;101.35;64.15;;;16.50;99.90;;;;;;5149937;27;20046;-65
2021/06/04 04:07:03;;;;;;;133.77;67.47;;;16.50;99.90;;;;;;5163092;27;20121;-65
2021/06/04 04:09:29;;;;;;;102.70;60.17;;;16.50;99.90;;;;;;5154832;27;20077;-65
2021/06/04 04:11:55;;;;;;;90.80;62.65;;;16.40;99.90;;;;;;5159251;27;20061;-65
2021/06/04 04:14:23;;;;;;;174.48;74.68;;;16.50;99.90;;;;;;5155991;27;20533;-65
2021/06/04 04:16:49;;;;;;;228.52;81.75;;;16.40;99.90;;;;;;5163021;27;20039;-65
2021/06/04 04:19:19;;;;;;;103.72;63.75;;;16.40;99.90;;;;;;5163945;27;20446;-65
2021/06/04 04:21:46;;;;;;;66.88;53.67;;;16.40;99.90;;;;;;5170044;27;20038;-65
2021/06/04 04:24:17;;;;;;;68.90;56.33;;;16.40;99.90;;;;;;5161704;27;20039;-65
2021/06/04 04:26:44;;;;;;;82.97;59.95;;;16.40;99.90;;;;;;5164721;27;20128;-65
2021/06/04 04:29:10;;;;;;;142.00;66.07;;;16.50;99.90;;;;;;5157937;27;20087;-65
2021/06/04 04:31:44;;;;;;;89.65;60.70;;;16.50;99.90;;;;;;5154344;27;20046;-65
2021/06/04 04:34:11;;;;;;;96.20;64.72;;;16.50;99.90;;;;;;5160403;27;20405;-65
2021/06/04 04:36:41;;;;;;;81.45;58.97;;;16.50;99.90;;;;;;5157932;27;20049;-65
2021/06/04 04:39:11;;;;;;;67.63;51.67;;;16.50;99.90;;;;;;5160097;27;20034;-65
2021/06/04 04:41:37;;;;;;;67.05;52.45;;;16.50;99.90;;;;;;5155425;27;20616;-65
2021/06/04 04:44:04;;;;;;;62.97;52.78;;;16.50;99.90;;;;;;5161174;27;20121;-65
2021/06/04 04:46:31;;;;;;;78.78;59.28;;;16.50;99.90;;;;;;5156239;27;20569;-65
2021/06/04 04:48:57;;;;;;;124.68;71.15;;;16.50;99.90;;;;;;5159014;27;20038;-65
2021/06/04 04:51:26;;;;;;;348.42;101.22;;;16.50;99.90;;;;;;5154195;27;20076;-65
2021/06/04 04:53:52;;;;;;;243.13;90.50;;;16.60;99.90;;;;;;5164467;27;20109;-65
2021/06/04 04:56:19;;;;;;;136.18;72.55;;;16.60;99.90;;;;;;5157255;27;20034;-65
2021/06/04 04:58:45;;;;;;;210.25;85.20;;;16.70;99.90;;;;;;5160330;27;20886;-65
2021/06/04 05:01:14;;;;;;;87.47;68.18;;;16.70;99.90;;;;;;5152979;27;20042;-66
2021/06/04 05:03:41;;;;;;;79.05;62.90;;;17.00;99.90;;;;;;5166928;27;20039;-66
2021/06/04 05:06:08;;;;;;;78.43;60.50;;;17.20;99.90;;;;;;5164044;27;20042;-65
2021/06/04 05:08:34;;;;;;;72.47;56.63;;;17.30;99.90;;;;;;5145174;27;20041;-65
2021/06/04 05:11:00;;;;;;;75.97;57.28;;;17.30;99.90;;;;;;5158347;27;20045;-65
2021/06/04 05:13:26;;;;;;;62.15;53.03;;;17.20;99.90;;;;;;5151497;27;20057;-65
2021/06/04 05:15:52;;;;;;;63.00;53.33;;;17.20;99.90;;;;;;5164272;27;20095;-65
2021/06/04 05:18:18;;;;;;;59.90;52.72;;;17.10;99.90;;;;;;5152553;27;20042;-66
2021/06/04 05:20:46;;;;;;;122.30;64.80;;;17.10;99.90;;;;;;5162995;27;20038;-66
2021/06/04 05:23:13;;;;;;;123.40;66.07;;;17.10;99.90;;;;;;5162514;27;20065;-66
2021/06/04 05:25:44;;;;;;;85.78;61.58;;;17.10;99.90;;;;;;5158762;27;20255;-66
2021/06/04 05:28:13;;;;;;;77.80;59.53;;;17.00;99.90;;;;;;5153755;27;20034;-66
2021/06/04 05:30:42;;;;;;;93.47;65.50;;;17.10;99.90;;;;;;5160133;27;20080;-66
2021/06/04 05:33:13;;;;;;;77.55;55.75;;;17.20;99.90;;;;;;5153474;27;20035;-66
2021/06/04 05:35:40;;;;;;;72.35;55.38;;;17.30;99.90;;;;;;5160016;27;20136;-66
2021/06/04 05:38:06;;;;;;;116.82;70.47;;;17.40;99.90;;;;;;5152917;27;20054;-66
2021/06/04 05:40:41;;;;;;;114.90;69.55;;;17.50;99.90;;;;;;5160288;27;20042;-66
2021/06/04 05:43:11;;;;;;;166.98;84.32;;;17.60;99.90;;;;;;5152693;27;20053;-66
2021/06/04 05:45:42;;;;;;;171.77;87.10;;;17.70;99.90;;;;;;5159331;27;20054;-66
2021/06/04 05:48:10;;;;;;;107.28;69.28;;;17.80;99.90;;;;;;5159566;27;20431;-68
2021/06/04 05:50:39;;;;;;;101.18;65.72;;;17.90;99.90;;;;;;5165116;27;20042;-66
2021/06/04 05:53:07;;;;;;;73.50;56.35;;;18.00;99.90;;;;;;5156951;27;20043;-67
2021/06/04 05:55:35;;;;;;;76.10;56.85;;;18.00;99.90;;;;;;5160326;27;20117;-67
2021/06/04 05:58:07;;;;;;;100.82;66.70;;;18.10;99.90;;;;;;5155001;27;20478;-67
2021/06/04 06:00:37;;;;;;;68.05;55.75;;;18.20;99.90;;;;;;5157612;27;20042;-67
2021/06/04 06:03:05;;;;;;;82.28;59.25;;;18.30;99.90;;;;;;5156216;27;20346;-66
2021/06/04 06:05:32;;;;;;;94.97;63.05;;;18.30;99.90;;;;;;5159648;27;20062;-67
2021/06/04 06:07:57;;;;;;;73.43;56.53;;;18.40;99.90;;;;;;5164165;27;20138;-67
2021/06/04 06:10:24;;;;;;;92.68;64.72;;;18.50;99.90;;;;;;5154683;27;20143;-67
2021/06/04 06:12:54;;;;;;;84.70;63.63;;;18.60;99.90;;;;;;5164967;27;20704;-66
2021/06/04 06:15:22;;;;;;;75.82;56.60;;;18.60;99.90;;;;;;5154974;27;20501;-66
2021/06/04 06:17:48;;;;;;;82.95;60.25;;;18.70;99.90;;;;;;5167935;27;20505;-66
2021/06/04 06:20:16;;;;;;;80.60;58.17;;;18.80;99.90;;;;;;5161685;27;20490;-66
2021/06/04 06:22:43;;;;;;;79.65;59.35;;;18.90;99.90;;;;;;5163903;27;20042;-66
2021/06/04 06:25:16;;;;;;;75.82;56.83;;;19.00;99.90;;;;;;5152741;27;20085;-66
2021/06/04 06:27:43;;;;;;;63.70;52.22;;;19.20;99.90;;;;;;5168639;27;20098;-66
2021/06/04 06:30:15;;;;;;;72.53;55.13;;;19.30;99.90;;;;;;5155989;27;20038;-66
2021/06/04 06:32:41;;;;;;;65.63;52.00;;;19.30;99.90;;;;;;5163120;27;20070;-66
2021/06/04 06:35:08;;;;;;;67.97;51.70;;;19.40;99.90;;;;;;5161470;27;20473;-66
2021/06/04 06:37:34;;;;;;;72.75;56.55;;;19.50;99.90;;;;;;5159736;27;20066;-66
2021/06/04 06:39:59;;;;;;;62.40;49.55;;;19.60;99.90;;;;;;5158969;27;20065;-66
2021/06/04 06:42:26;;;;;;;61.65;47.90;;;19.80;99.90;;;;;;5167217;27;20046;-67
2021/06/04 06:44:52;;;;;;;63.08;49.15;;;19.90;99.90;;;;;;5153734;27;20339;-67
2021/06/04 06:47:18;;;;;;;55.55;46.03;;;20.00;99.90;;;;;;5163605;27;20057;-67
2021/06/04 06:49:44;;;;;;;53.92;46.85;;;20.10;99.90;;;;;;5165621;27;20086;-67
2021/06/04 06:52:10;;;;;;;50.20;43.08;;;20.10;99.90;;;;;;5153217;27;20394;-67
2021/06/04 06:54:39;;;;;;;49.35;42.40;;;20.20;99.90;;;;;;5159235;27;20083;-67
2021/06/04 06:57:06;;;;;;;48.70;41.17;;;20.30;99.90;;;;;;5154631;27;20055;-67
2021/06/04 06:59:32;;;;;;;45.90;38.78;;;20.50;99.90;;;;;;5163219;27;20087;-67
2021/06/04 07:02:00;;;;;;;43.35;37.40;;;20.70;99.90;;;;;;5153623;27;20431;-67
2021/06/04 07:04:27;;;;;;;41.58;35.33;;;20.90;99.90;;;;;;5164452;27;20493;-67
2021/06/04 07:06:53;;;;;;;40.60;35.03;;;21.00;99.90;;;;;;5153803;27;20035;-68
2021/06/04 07:09:19;;;;;;;38.25;33.50;;;21.20;99.90;;;;;;5161680;27;20125;-68
2021/06/04 07:11:50;;;;;;;33.13;29.70;;;21.40;99.90;;;;;;5156464;27;20118;-68
2021/06/04 07:14:19;;;;;;;33.67;30.08;;;21.60;98.80;;;;;;5156730;27;20053;-68
2021/06/04 07:16:45;;;;;;;33.88;27.02;;;21.70;98.30;;;;;;5159644;27;20036;-67
2021/06/04 07:19:11;;;;;;;29.92;25.38;;;21.70;97.90;;;;;;5156506;27;20588;-67
2021/06/04 07:21:40;;;;;;;31.15;24.73;;;21.60;97.50;;;;;;5150983;27;20031;-67
2021/06/04 07:24:13;;;;;;;34.15;26.08;;;21.60;96.90;;;;;;5156283;27;20056;-68
2021/06/04 07:27:05;;;;;;;32.05;24.92;;;21.60;96.60;;;;;;5161318;27;20045;-68
2021/06/04 07:29:32;;;;;;;34.67;28.70;;;21.70;96.60;;;;;;5152269;27;20035;-68
2021/06/04 07:31:58;;;;;;;35.88;29.33;;;21.60;97.30;;;;;;5155285;27;20080;-68
2021/06/04 07:34:25;;;;;;;29.45;26.45;;;21.60;97.00;;;;;;5167483;27;20596;-68
2021/06/04 07:36:54;;;;;;;28.85;25.83;;;21.70;96.10;;;;;;5149571;27;20715;-68
2021/06/04 07:39:24;;;;;;;29.65;25.85;;;21.70;96.60;;;;;;5158518;27;20405;-68
2021/06/04 07:41:51;;;;;;;27.63;24.63;;;21.70;96.10;;;;;;5159036;27;20400;-68
2021/06/04 07:44:18;;;;;;;29.23;24.67;;;21.70;95.90;;;;;;5156673;27;20493;-68
2021/06/04 07:46:46;;;;;;;28.45;25.35;;;21.80;95.80;;;;;;5157343;27;20046;-68
2021/06/04 07:49:13;;;;;;;28.25;23.45;;;21.90;95.50;;;;;;5151685;27;20541;-68
2021/06/04 07:51:45;;;;;;;28.08;24.95;;;22.10;94.90;;;;;;5158124;27;20474;-68
2021/06/04 07:54:12;;;;;;;29.42;26.30;;;22.30;95.30;;;;;;5157791;27;20070;-68
2021/06/04 07:56:40;;;;;;;29.15;26.17;;;22.40;94.80;;;;;;5160957;27;20042;-67
2021/06/04 07:59:07;;;;;;;27.65;24.38;;;22.50;94.80;;;;;;5154877;27;20030;-68
2021/06/04 08:01:33;;;;;;;29.98;26.83;;;22.50;94.30;;;;;;5163041;27;20038;-68
2021/06/04 08:04:00;;;;;;;25.60;22.85;;;22.60;95.10;;;;;;5154207;27;20053;-67
2021/06/04 08:06:28;;;;;;;27.85;24.88;;;22.60;94.40;;;;;;5158279;27;20485;-67
2021/06/04 08:08:55;;;;;;;28.05;25.08;;;22.50;93.80;;;;;;5154470;27;20038;-67
2021/06/04 08:11:39;;;;;;;29.10;25.65;;;22.40;93.70;;;;;;5161181;27;20037;-67
2021/06/04 08:14:08;;;;;;;26.52;22.70;;;22.30;94.10;;;;;;5153694;27;20586;-68
2021/06/04 08:16:38;;;;;;;27.40;24.55;;;22.50;93.90;;;;;;5156507;27;20046;-67
2021/06/04 08:19:25;;;;;;;27.30;24.67;;;22.70;93.40;;;;;;5139796;27;20102;-65
2021/06/04 08:21:53;;;;;;;27.60;24.75;;;22.80;93.80;;;;;;5154806;27;20065;-65
2021/06/04 08:24:28;;;;;;;28.88;25.88;;;22.70;93.00;;;;;;5160404;27;20624;-65
2021/06/04 08:26:55;;;;;;;29.48;26.35;;;22.70;92.80;;;;;;5161397;27;20433;-67
2021/06/04 08:29:22;;;;;;;29.70;26.52;;;22.70;92.90;;;;;;5153007;27;20034;-67
2021/06/04 08:31:49;;;;;;;28.48;25.48;;;22.80;93.60;;;;;;5154813;27;20457;-70
2021/06/04 08:34:15;;;;;;;26.60;23.83;;;22.80;93.40;;;;;;5154982;27;20055;-69
2021/06/04 08:36:43;;;;;;;24.90;22.35;;;22.80;93.70;;;;;;5157798;27;20109;-69
2021/06/04 08:39:17;;;;;;;26.55;22.63;;;23.00;93.80;;;;;;5152270;27;20034;-69
2021/06/04 08:42:12;;;;;;;27.52;24.75;;;23.20;93.70;;;;;;5157889;27;20117;-69
2021/06/04 08:44:43;;;;;;;25.02;19.75;;;23.50;93.40;;;;;;5073589;27;20507;-69
2021/06/04 08:47:26;;;;;;;22.20;19.85;;;23.70;92.40;;;;;;5156970;27;20047;-69
2021/06/04 08:50:03;;;;;;;21.73;19.48;;;23.90;91.20;;;;;;5140128;27;20043;-69
2021/06/04 08:52:43;;;;;;;22.85;20.55;;;24.10;91.20;;;;;;5158188;27;20058;-69
2021/06/04 08:55:36;;;;;;;23.27;20.85;;;24.30;88.10;;;;;;5162734;27;20060;-69
2021/06/04 08:58:23;;;;;;;21.65;19.42;;;24.30;88.00;;;;;;5162938;27;20454;-69
2021/06/04 09:01:00;;;;;;;22.55;20.25;;;24.40;87.40;;;;;;5161352;27;20452;-69
2021/06/04 09:03:51;;;;;;;22.10;18.67;;;24.50;88.70;;;;;;5160772;27;20398;-69
2021/06/04 09:06:36;;;;;;;20.15;17.67;;;24.70;89.00;;;;;;5141631;27;20046;-69
2021/06/04 09:09:27;;;;;;;25.52;21.00;;;25.10;86.70;;;;;;5169818;27;20087;-69
2021/06/04 09:12:09;;;;;;;21.23;17.27;;;25.10;86.10;;;;;;5121449;27;20091;-69
2021/06/04 09:14:35;;;;;;;20.17;18.15;;;25.30;84.00;;;;;;5144744;27;20051;-69
2021/06/04 09:17:09;;;;;;;21.73;19.52;;;25.40;85.60;;;;;;5155312;27;20071;-69
2021/06/04 09:19:57;;;;;;;21.15;18.92;;;25.60;83.20;;;;;;5169455;27;20023;-69
2021/06/04 09:22:26;;;;;;;21.33;19.02;;;25.70;80.40;;;;;;5151148;27;20031;-69
2021/06/04 09:24:53;;;;;;;20.75;18.73;;;25.70;79.20;;;;;;5161073;27;20050;-69
2021/06/04 09:27:40;;;;;;;16.95;12.65;;;25.80;82.60;;;;;;5151846;27;20402;-69
2021/06/04 09:30:24;;;;;;;9.18;8.18;;;26.00;74.70;;;;;;5161334;27;20042;-69
2021/06/04 09:33:05;;;;;;;;;;;25.90;72.50;;;;;;5153283;27;20341;-69
2021/06/04 09:35:32;;;;;;;10.82;9.70;;;25.90;75.40;;;;;;5168364;27;19914;-69
2021/06/04 09:38:17;;;;;;;11.88;10.68;;;26.00;74.60;;;;;;5153142;27;20470;-69
2021/06/04 09:40:44;;;;;;;13.48;12.27;;;26.20;71.00;;;;;;5160437;27;20110;-70
2021/06/04 09:43:10;;;;;;;15.68;13.75;;;26.40;73.10;;;;;;5155752;27;20042;-70
2021/06/04 09:45:42;;;;;;;14.55;13.15;;;26.60;72.50;;;;;;5163904;27;20047;-70
2021/06/04 09:48:28;;;;;;;16.15;14.52;;;26.70;70.00;;;;;;5152905;27;20085;-70
2021/06/04 09:51:06;;;;;;;16.35;14.63;;;26.80;69.30;;;;;;5161387;27;20053;-70
2021/06/04 09:53:32;;;;;;;16.77;13.80;;;26.90;67.30;;;;;;5154856;27;20030;-70
2021/06/04 09:56:07;;;;;;;13.00;11.63;;;27.20;68.20;;;;;;5157103;27;20042;-70
2021/06/04 09:58:49;;;;;;;15.27;13.65;;;27.30;66.70;;;;;;5154314;27;20381;-70
2021/06/04 10:01:16;;;;;;;15.15;13.25;;;27.40;63.50;;;;;;5158100;27;20027;-70
2021/06/04 10:03:42;;;;;;;11.95;10.65;;;27.40;65.30;;;;;;5154364;27;20038;-71
2021/06/04 10:06:28;;;;;;;19.05;12.90;;;27.50;64.80;;;;;;5155983;27;20413;-70
2021/06/04 10:09:34;;;;;;;15.35;13.18;;;27.70;63.00;;;;;;5159086;27;20061;-70
2021/06/04 10:12:09;;;;;;;13.85;12.55;;;27.90;65.60;;;;;;5143846;27;20441;-70
2021/06/04 10:14:58;;;;;;;11.25;10.05;;;28.10;59.90;;;;;;5138188;27;20045;-71
2021/06/04 10:17:43;;;;;;;8.60;7.70;;;28.30;60.10;;;;;;5159423;27;20038;-71
2021/06/04 10:20:37;;;;;;;10.13;9.07;;;28.40;58.30;;;;;;5155797;27;20030;-71
2021/06/04 10:23:34;;;;;;;13.35;11.10;;;28.50;53.90;;;;;;5156071;27;20053;-71
2021/06/04 10:26:17;;;;;;;14.18;12.77;;;28.50;57.60;;;;;;5159855;27;20367;-70
2021/06/04 10:28:48;;;;;;;12.07;10.80;;;28.50;59.00;;;;;;5154811;27;20034;-70
2021/06/04 10:31:17;;;;;;;12.90;11.60;;;28.60;57.20;;;;;;5161459;27;20035;-71
2021/06/04 10:33:43;;;;;;;13.50;11.20;;;28.80;55.30;;;;;;5152860;27;20045;-72
2021/06/04 10:36:14;;;;;;;11.60;9.02;;;28.80;56.40;;;;;;5157323;27;20050;-71
2021/06/04 10:38:53;;;;;;;9.15;7.40;;;29.00;54.50;;;;;;5160579;27;20133;-71
2021/06/04 10:41:56;;;;;;;7.38;6.65;;;29.20;55.50;;;;;;5161135;27;20034;-70
2021/06/04 10:44:44;;;;;;;12.18;11.07;;;29.50;54.50;;;;;;5151742;27;20038;-70
2021/06/04 10:47:36;;;;;;;12.00;10.85;;;29.80;51.60;;;;;;5157308;27;20062;-71
2021/06/04 10:50:19;;;;;;;13.63;12.10;;;30.10;53.50;;;;;;5159427;27;20056;-69
2021/06/04 10:53:04;;;;;;;12.88;11.73;;;30.20;53.00;;;;;;5158307;27;20478;-71
2021/06/04 10:55:39;;;;;;;15.15;13.75;;;30.30;52.60;;;;;;5155102;27;20057;-71
2021/06/04 10:58:20;;;;;;;13.02;11.52;;;30.40;52.30;;;;;;5161527;27;20031;-71
2021/06/04 11:00:49;;;;;;;11.57;10.38;;;30.50;52.30;;;;;;5159987;27;20030;-70
2021/06/04 11:03:18;;;;;;;14.38;13.00;;;30.40;53.30;;;;;;5154428;27;20046;-71
2021/06/04 11:05:49;;;;;;;13.43;12.13;;;30.40;53.20;;;;;;5154972;27;20045;-71
2021/06/04 11:08:32;;;;;;;13.30;12.05;;;30.30;49.30;;;;;;5156980;27;20039;-71
2021/06/04 11:11:30;;;;;;;13.77;12.50;;;30.40;51.40;;;;;;5157277;27;20676;-71
2021/06/04 11:14:18;;;;;;;14.23;12.70;;;30.50;52.50;;;;;;5147936;27;20508;-70
2021/06/04 11:17:12;;;;;;;14.95;13.35;;;30.40;52.80;;;;;;5158733;27;20400;-70
2021/06/04 11:19:43;;;;;;;13.20;11.82;;;30.50;51.60;;;;;;5158031;27;20034;-70
2021/06/04 11:22:16;;;;;;;14.13;12.70;;;30.60;52.20;;;;;;5155376;27;20489;-70
2021/06/04 11:24:52;;;;;;;14.30;12.88;;;30.90;52.30;;;;;;5147173;27;20047;-70
2021/06/04 11:27:31;;;;;;;15.02;13.63;;;31.00;51.70;;;;;;5156625;27;20038;-70
2021/06/04 11:29:58;;;;;;;15.32;13.88;;;30.90;52.40;;;;;;5157898;27;20038;-70
2021/06/04 11:32:32;;;;;;;14.30;12.77;;;30.90;50.70;;;;;;5150547;27;20436;-70
2021/06/04 11:35:00;;;;;;;12.90;10.70;;;30.70;51.30;;;;;;5164540;27;20075;-69
2021/06/04 11:37:50;;;;;;;14.48;12.98;;;30.80;51.00;;;;;;5141324;27;20054;-67
2021/06/04 11:40:42;;;;;;;13.95;12.65;;;30.90;49.10;;;;;;5144595;27;20139;-71
2021/06/04 11:43:14;;;;;;;12.13;10.93;;;30.80;47.30;;;;;;5150667;27;20045;-70
2021/06/04 11:45:44;;;;;;;9.50;8.50;;;30.90;48.90;;;;;;5156270;27;20134;-70
2021/06/04 11:48:25;;;;;;;8.15;6.68;;;30.90;48.70;;;;;;5138484;27;20046;-71
2021/06/04 11:51:19;;;;;;;10.73;8.07;;;30.70;48.00;;;;;;5157727;27;20109;-70
2021/06/04 11:53:52;;;;;;;9.88;7.97;;;30.30;50.00;;;;;;5151385;27;20040;-68
2021/06/04 11:56:39;;;;;;;7.97;7.22;;;30.00;49.70;;;;;;5160823;27;20470;-69
2021/06/04 11:59:13;;;;;;;9.70;8.00;;;30.30;50.90;;;;;;5150937;27;20027;-68
2021/06/04 12:02:03;;;;;;;7.25;5.65;;;30.60;49.60;;;;;;5156419;27;20042;-68
2021/06/04 12:04:29;;;;;;;9.85;6.78;;;30.90;48.30;;;;;;5154662;27;20046;-68
2021/06/04 12:06:59;;;;;;;7.15;5.57;;;31.10;48.50;;;;;;5156686;27;20412;-68
2021/06/04 12:09:31;;;;;;;8.93;6.05;;;31.20;46.60;;;;;;5157183;27;20086;-68
2021/06/04 12:12:15;;;;;;;10.77;8.15;;;31.40;47.00;;;;;;5160827;27;20835;-69
2021/06/04 12:14:57;;;;;;;11.02;8.60;;;31.30;44.50;;;;;;5158271;27;20485;-67
2021/06/04 12:17:29;;;;;;;9.32;5.75;;;31.00;44.90;;;;;;5152687;27;20043;-65
2021/06/04 12:20:33;;;;;;;6.35;4.63;;;31.10;45.80;;;;;;5156304;27;20046;-67
2021/06/04 12:23:30;;;;;;;7.72;6.10;;;31.40;46.60;;;;;;5155911;27;20041;-67
2021/06/04 12:26:01;;;;;;;6.90;5.97;;;31.50;45.70;;;;;;5164298;27;20078;-66
2021/06/04 12:28:39;;;;;;;7.55;5.90;;;31.30;45.50;;;;;;5159001;27;20482;-67
2021/06/04 12:31:34;;;;;;;9.65;5.47;;;31.30;45.80;;;;;;5159271;27;20067;-66
2021/06/04 12:34:01;;;;;;;7.72;5.63;;;31.30;46.40;;;;;;5150485;27;20051;-66
2021/06/04 12:36:30;;;;;;;7.88;5.80;;;31.20;46.40;;;;;;5167140;27;20043;-66
2021/06/04 12:39:29;;;;;;;7.28;4.88;;;31.10;46.10;;;;;;5151376;27;20045;-66
2021/06/04 12:42:20;;;;;;;10.82;7.40;;;31.30;48.00;;;;;;5113870;27;20081;-65
2021/06/04 12:44:58;;;;;;;10.98;8.23;;;31.50;46.10;;;;;;5155060;27;20050;-65
2021/06/04 12:47:58;;;;;;;12.02;10.32;;;31.50;47.40;;;;;;5164702;27;20038;-65
2021/06/04 12:50:53;;;;;;;13.95;12.15;;;31.70;47.10;;;;;;5155544;27;20479;-65
2021/06/04 12:53:33;;;;;;;16.58;13.55;;;31.60;47.40;;;;;;5158137;27;20038;-65
2021/06/04 12:55:59;;;;;;;13.32;11.05;;;31.50;49.00;;;;;;5161174;27;20063;-65
2021/06/04 12:58:29;;;;;;;15.60;12.20;;;31.40;49.80;;;;;;5160038;27;20039;-65
2021/06/04 13:01:10;;;;;;;12.55;11.18;;;31.30;46.90;;;;;;5157604;27;20466;-65